Terminal Aerodrome Forecast
Issued by NWS

Home | Current Version | Previous Version | Text Only | Print | Product List | Glossary On
Versions: 1 2 3 4 5 6 7 8 9 10 11 12 13 14 15 16 17
000
FTUS42 KTAE 261939 AAA
TAFECP
TAF AMD
KECP 261939Z 2620/2718 VRB05KT 2SM -RA BR BKN003 OVC030
     FM262100 18005KT 5SM -RA BR BKN025 OVC030
     FM270500 26008KT P6SM OVC008
     FM271400 32012G17KT P6SM BKN020 OVC025=

USA.gov is the U.S. government's official web portal to all federal, state and local government web resources and services.